Terminal Aerodrome Forecast
Issued by NWS

Home | Current Version | Previous Version | Text Only | Print | Product List | Glossary On
Versions: 1 2 3 4 5 6 7 8 9 10 11 12 13 14 15 16 17 18 19 20 21 22 23
000
FTAK31 PAJN 230723 AAB
TAFAYA
TAF AMD
PAYA 230723Z 2307/2406 00000KT P6SM VCSH SCT008 OVC040
      TEMPO 2307/2311 3SM BR BKN008 BKN040
     FM231500 VRB05KT P6SM SCT010 BKN025
     FM231900 28006KT P6SM SCT020 BKN040
      AMD LTD TO CLD VIS AND WIND 2307/2309=

USA.gov is the U.S. government's official web portal to all federal, state and local government web resources and services.